首页
METAR-TAF:

METAR-TAF

机场 :

Lac Qui Parle County Airport

麦迪逊, 明尼蘇達州, 美国

纬度: 44-59-10N, 经度: 096-10-40W, 海拔: 330米

当前天气观测

该预报发布于14分钟前的21:37 UTC
风速17节,风向,有时为23节阵风
温度 -3°C
湿度 54%
气压 1018 hPa
能見度: 16.1公里
天空无云

METAR: KDXX 122137Z AUTO 17017G23KT 10SM CLR M03/M11 A3006 RMK AO2

时间: 15:51 (21:51 UTC)


TAF: 丢失

超过4000个机场的气象观测和天气预报(METAR&TAF报告)。

可查询的气象台以黄色和红色小点在地图上表示。

将鼠标移到小点上方,可查看气象台名称。

然后点击查看天气观测和预报。

如需切换地图:点击带黑十字的绿色按钮放大地图;点击带横线的绿色按钮缩小地图;或者点击绿色箭头查看邻近地区的地图。


METAR-TAF: